createdAt,value
2019-02-17T00:00:44.823Z,101308.34
2019-02-17T00:03:13.561Z,101311.02
2019-02-17T00:05:42.327Z,101306.22
2019-02-17T00:08:11.062Z,101308.91
2019-02-17T00:10:39.826Z,101310.70
2019-02-17T00:13:08.565Z,101307.63
2019-02-17T00:15:37.353Z,101302.86
2019-02-17T00:18:06.244Z,101307.73
2019-02-17T00:20:35.031Z,101309.05
2019-02-17T00:23:03.782Z,101313.08
2019-02-17T00:25:32.620Z,101309.59
2019-02-17T00:28:01.426Z,101308.31
2019-02-17T00:30:30.254Z,101305.24
2019-02-17T00:32:59.003Z,101306.12
2019-02-17T00:35:27.871Z,101315.38
2019-02-17T00:37:56.617Z,101311.06
2019-02-17T00:40:25.360Z,101311.94
2019-02-17T00:42:54.130Z,101310.66
2019-02-17T00:45:22.866Z,101312.48
2019-02-17T00:47:51.634Z,101314.69
2019-02-17T00:50:20.371Z,101313.37
2019-02-17T00:52:49.138Z,101312.52
2019-02-17T00:55:17.878Z,101312.97
2019-02-17T00:57:46.649Z,101312.56
2019-02-17T01:00:15.468Z,101309.99
2019-02-17T01:02:44.243Z,101313.98
2019-02-17T01:05:12.978Z,101313.11
2019-02-17T01:07:41.814Z,101308.31
2019-02-17T01:10:10.566Z,101310.95
2019-02-17T01:12:39.333Z,101309.22
2019-02-17T01:15:08.853Z,101306.66
2019-02-17T01:17:37.618Z,101303.14
2019-02-17T01:20:25.823Z,101303.66
2019-02-17T01:22:54.588Z,101304.09
2019-02-17T01:25:23.330Z,101303.72
2019-02-17T01:27:52.166Z,101305.00
2019-02-17T01:30:20.899Z,101306.36
2019-02-17T01:32:49.740Z,101304.16
2019-02-17T01:35:18.476Z,101297.57
2019-02-17T01:37:47.235Z,101301.19
2019-02-17T01:40:15.976Z,101299.84
2019-02-17T01:42:44.743Z,101301.19
2019-02-17T01:45:13.476Z,101291.56
2019-02-17T01:47:42.243Z,101292.47
2019-02-17T01:50:11.061Z,101293.80
2019-02-17T01:52:58.852Z,101292.98
2019-02-17T01:55:27.590Z,101286.39
2019-02-17T01:57:56.428Z,101288.59
2019-02-17T02:00:25.320Z,101285.08
2019-02-17T02:02:54.099Z,101280.31
2019-02-17T02:05:22.938Z,101283.76
2019-02-17T02:07:51.822Z,101277.23
2019-02-17T02:10:20.586Z,101275.92
2019-02-17T02:12:52.602Z,101268.52
2019-02-17T02:15:21.342Z,101274.67
2019-02-17T02:17:50.172Z,101268.56
2019-02-17T02:20:18.929Z,101271.23
2019-02-17T02:22:47.704Z,101273.42
2019-02-17T02:25:16.459Z,101259.44
2019-02-17T02:27:45.237Z,101262.08
2019-02-17T02:30:14.003Z,101257.24
2019-02-17T02:32:42.834Z,101259.91
2019-02-17T02:35:11.600Z,101257.34
2019-02-17T02:37:40.433Z,101253.77
2019-02-17T02:40:09.172Z,101256.95
2019-02-17T02:42:37.982Z,101257.02
2019-02-17T02:45:07.660Z,101246.51
2019-02-17T02:47:36.421Z,101253.06
2019-02-17T02:50:05.762Z,101252.22
2019-02-17T02:52:34.498Z,101252.22
2019-02-17T02:55:03.273Z,101251.81
2019-02-17T02:57:32.013Z,101252.22
2019-02-17T03:00:00.777Z,101248.33
2019-02-17T03:02:29.519Z,101249.72
2019-02-17T03:04:58.292Z,101242.25
2019-02-17T03:07:27.097Z,101236.98
2019-02-17T03:09:55.866Z,101242.73
2019-02-17T03:12:24.675Z,101245.42
2019-02-17T03:14:53.507Z,101243.64
2019-02-17T03:17:22.291Z,101243.67
2019-02-17T03:19:51.078Z,101241.08
2019-02-17T03:22:19.809Z,101236.75
2019-02-17T03:24:48.574Z,101238.50
2019-02-17T03:27:17.312Z,101240.27
2019-02-17T03:29:46.072Z,101247.31
2019-02-17T03:32:14.904Z,101250.86
2019-02-17T03:34:43.659Z,101244.31
2019-02-17T03:37:12.470Z,101240.83
2019-02-17T03:39:41.609Z,101243.47
2019-02-17T03:42:10.353Z,101247.02
2019-02-17T03:44:39.115Z,101247.92
2019-02-17T03:47:07.863Z,101248.39
2019-02-17T03:49:36.626Z,101242.72
2019-02-17T03:52:05.366Z,101245.79
2019-02-17T03:54:34.123Z,101244.44
2019-02-17T03:57:02.875Z,101240.97
2019-02-17T03:59:31.717Z,101239.20
2019-02-17T04:02:00.459Z,101240.56
2019-02-17T04:04:29.221Z,101243.63
2019-02-17T04:06:58.036Z,101248.08
2019-02-17T04:09:26.870Z,101244.98
2019-02-17T04:11:55.668Z,101245.05
2019-02-17T04:14:24.437Z,101239.78
2019-02-17T04:16:53.248Z,101242.91
2019-02-17T04:19:22.041Z,101249.97
2019-02-17T04:21:50.783Z,101246.08
2019-02-17T04:24:19.550Z,101239.91
2019-02-17T04:26:48.306Z,101243.04
2019-02-17T04:29:17.066Z,101238.21
2019-02-17T04:31:45.810Z,101231.70
2019-02-17T04:34:14.578Z,101226.43
2019-02-17T04:36:43.322Z,101222.08
2019-02-17T04:39:31.371Z,101226.90
2019-02-17T04:42:00.111Z,101227.81
2019-02-17T04:44:28.869Z,101223.45
2019-02-17T04:46:57.606Z,101220.35
2019-02-17T04:49:26.339Z,101218.59
2019-02-17T04:51:55.164Z,101216.37
2019-02-17T04:54:23.895Z,101212.02
2019-02-17T04:56:52.671Z,101216.37
2019-02-17T04:59:24.414Z,101215.53
2019-02-17T05:01:53.185Z,101212.02
2019-02-17T05:04:21.916Z,101211.11
2019-02-17T05:06:50.759Z,101208.00
2019-02-17T05:09:19.491Z,101210.60
2019-02-17T05:11:48.250Z,101202.77
2019-02-17T05:14:16.991Z,101202.30
2019-02-17T05:16:45.769Z,101196.56
2019-02-17T05:19:14.536Z,101194.41
2019-02-17T05:21:43.376Z,101196.16
2019-02-17T05:24:12.182Z,101198.75
2019-02-17T05:26:40.950Z,101193.52
2019-02-17T05:29:09.699Z,101197.03
2019-02-17T05:31:38.539Z,101200.95
2019-02-17T05:34:07.274Z,101199.63
2019-02-17T05:36:36.105Z,101189.11
2019-02-17T05:39:06.127Z,101189.95
2019-02-17T05:41:34.895Z,101190.83
2019-02-17T05:44:03.667Z,101188.19
2019-02-17T05:46:32.424Z,101190.83
2019-02-17T05:49:01.164Z,101189.04
2019-02-17T05:51:29.927Z,101187.72
2019-02-17T05:53:58.737Z,101181.61
2019-02-17T05:56:27.513Z,101185.56
2019-02-17T05:58:56.320Z,101184.25
2019-02-17T06:01:25.163Z,101186.88
2019-02-17T06:03:53.906Z,101193.86
2019-02-17T06:06:22.671Z,101186.88
2019-02-17T06:08:51.468Z,101187.76
2019-02-17T06:11:20.228Z,101185.53
2019-02-17T06:13:49.038Z,101187.76
2019-02-17T06:16:17.803Z,101182.89
2019-02-17T06:18:46.567Z,101185.97
2019-02-17T06:21:15.327Z,101184.22
2019-02-17T06:23:44.070Z,101184.65
2019-02-17T06:26:12.827Z,101188.16
2019-02-17T06:28:41.636Z,101185.53
2019-02-17T06:31:14.426Z,101182.45
2019-02-17T06:33:40.869Z,101184.65
2019-02-17T06:36:09.613Z,101183.34
2019-02-17T06:38:38.370Z,101182.93
2019-02-17T06:41:07.219Z,101189.91
2019-02-17T06:43:35.996Z,101189.95
2019-02-17T06:46:04.808Z,101189.95
2019-02-17T06:48:33.574Z,101195.69
2019-02-17T06:51:02.356Z,101195.22
2019-02-17T06:53:31.128Z,101195.66
2019-02-17T06:56:14.476Z,101190.83
2019-02-17T06:58:43.351Z,101192.58
2019-02-17T07:01:12.167Z,101193.02
2019-02-17T07:03:40.932Z,101190.83
2019-02-17T07:06:17.695Z,101190.36
2019-02-17T07:08:46.524Z,101185.09
2019-02-17T07:11:15.270Z,101186.41
2019-02-17T07:13:44.391Z,101185.94
2019-02-17T07:16:14.312Z,101189.04
2019-02-17T07:18:45.221Z,101190.32
2019-02-17T07:21:14.350Z,101192.89
2019-02-17T07:23:43.107Z,101191.00
2019-02-17T07:26:11.921Z,101197.05
2019-02-17T07:28:40.867Z,101192.63
2019-02-17T07:31:14.569Z,101186.81
2019-02-17T07:33:43.398Z,101186.34
2019-02-17T07:36:12.148Z,101188.06
2019-02-17T07:38:41.351Z,101182.35
2019-02-17T07:41:10.212Z,101178.81
2019-02-17T07:43:43.098Z,101185.83
2019-02-17T07:46:15.107Z,101181.03
2019-02-17T07:48:44.173Z,101182.35
2019-02-17T07:51:12.937Z,101180.13
2019-02-17T07:53:41.778Z,101180.53
2019-02-17T07:56:10.731Z,101173.47
2019-02-17T07:58:41.041Z,101175.19
2019-02-17T08:01:17.589Z,101173.36
2019-02-17T08:03:46.792Z,101177.24
2019-02-17T08:06:15.744Z,101174.50
2019-02-17T08:08:44.612Z,101170.48
2019-02-17T08:11:13.352Z,101168.98
2019-02-17T08:13:42.531Z,101172.82
2019-02-17T08:16:11.302Z,101163.93
2019-02-17T08:18:40.096Z,101168.24
2019-02-17T08:21:09.035Z,101167.29
2019-02-17T08:23:37.889Z,101160.66
2019-02-17T08:26:10.543Z,101160.98
2019-02-17T08:28:39.648Z,101157.44
2019-02-17T08:31:09.334Z,101154.69
2019-02-17T08:33:38.100Z,101156.77
2019-02-17T08:36:07.311Z,101150.09
2019-02-17T08:38:37.641Z,101153.89
2019-02-17T08:41:09.789Z,101150.30
2019-02-17T08:43:38.890Z,101154.89
2019-02-17T08:46:08.515Z,101143.26
2019-02-17T08:48:44.312Z,101145.86
2019-02-17T08:51:13.063Z,101151.85
2019-02-17T08:53:41.921Z,101145.61
2019-02-17T08:56:10.816Z,101146.33
2019-02-17T08:58:40.176Z,101143.16
2019-02-17T09:01:08.947Z,101147.91
2019-02-17T09:03:37.695Z,101148.63
2019-02-17T09:06:06.544Z,101141.01
2019-02-17T09:08:36.800Z,101143.09
2019-02-17T09:11:04.954Z,101140.75
2019-02-17T09:13:33.711Z,101136.73
2019-02-17T09:16:02.478Z,101135.73
2019-02-17T09:18:31.227Z,101133.31
2019-02-17T09:21:00.102Z,101129.22
2019-02-17T09:23:28.851Z,101131.37
2019-02-17T09:25:57.888Z,101128.19
2019-02-17T09:28:26.644Z,101128.10
2019-02-17T09:30:55.487Z,101122.34
2019-02-17T09:33:24.303Z,101127.09
2019-02-17T09:35:53.898Z,101123.03
2019-02-17T09:38:22.723Z,101115.41
2019-02-17T09:40:51.514Z,101122.36
2019-02-17T09:43:20.267Z,101125.65
2019-02-17T09:45:49.155Z,101119.88
2019-02-17T09:48:17.903Z,101118.91
2019-02-17T09:50:46.677Z,101118.81
2019-02-17T09:53:15.532Z,101113.43
2019-02-17T09:55:44.304Z,101109.38
2019-02-17T09:58:13.198Z,101109.38
2019-02-17T10:00:41.967Z,101105.79
2019-02-17T10:03:10.720Z,101103.09
2019-02-17T10:05:39.492Z,101100.80
2019-02-17T10:08:08.304Z,101097.67
2019-02-17T10:10:37.177Z,101100.21
2019-02-17T10:13:07.203Z,101098.36
2019-02-17T10:15:35.989Z,101096.55
2019-02-17T10:18:04.742Z,101100.36
2019-02-17T10:20:33.616Z,101100.70
2019-02-17T10:23:02.367Z,101095.80
2019-02-17T10:25:31.212Z,101089.93
2019-02-17T10:28:00.044Z,101082.78
2019-02-17T10:30:28.889Z,101085.32
2019-02-17T10:32:57.781Z,101079.93
2019-02-17T10:35:26.649Z,101078.01
2019-02-17T10:37:55.470Z,101078.34
2019-02-17T10:40:24.313Z,101076.92
2019-02-17T10:42:53.186Z,101074.56
2019-02-17T10:45:21.970Z,101071.37
2019-02-17T10:47:50.723Z,101073.47
2019-02-17T10:50:19.548Z,101061.91
2019-02-17T10:52:48.318Z,101057.06
2019-02-17T10:55:17.160Z,101063.12
2019-02-17T10:57:46.043Z,101058.62
2019-02-17T11:00:15.677Z,101056.80
2019-02-17T11:02:47.119Z,101056.80
2019-02-17T11:05:14.225Z,101053.16
2019-02-17T11:07:42.999Z,101053.65
2019-02-17T11:10:11.954Z,101050.47
2019-02-17T11:12:40.726Z,101045.61
2019-02-17T11:15:11.718Z,101042.42
2019-02-17T11:17:40.510Z,101043.28
2019-02-17T11:20:09.401Z,101038.44
2019-02-17T11:22:38.266Z,101037.59
2019-02-17T11:25:07.251Z,101027.88
2019-02-17T11:27:36.233Z,101019.94
2019-02-17T11:30:06.147Z,101019.94
2019-02-17T11:32:35.062Z,101011.48
2019-02-17T11:35:03.922Z,101009.83
2019-02-17T11:37:32.701Z,101008.50
2019-02-17T11:40:01.462Z,101012.86
2019-02-17T11:42:30.339Z,101006.70
2019-02-17T11:44:59.114Z,101006.64
2019-02-17T11:47:27.977Z,101005.31
2019-02-17T11:49:56.717Z,101006.58
2019-02-17T11:52:25.636Z,101006.58
2019-02-17T11:54:54.549Z,100998.20
2019-02-17T11:57:23.317Z,100998.65
2019-02-17T11:59:52.130Z,100997.81
2019-02-17T12:02:24.991Z,100996.43
2019-02-17T12:04:51.509Z,100986.30
2019-02-17T12:07:20.271Z,100986.69
2019-02-17T12:09:49.024Z,100979.63
2019-02-17T12:12:17.819Z,100975.66
2019-02-17T12:14:46.523Z,100979.57
2019-02-17T12:17:15.356Z,100964.15
2019-02-17T12:19:44.125Z,100971.52
2019-02-17T12:22:29.673Z,100969.81
2019-02-17T12:25:03.870Z,100968.94
2019-02-17T12:28:09.752Z,100962.66
2019-02-17T12:30:39.800Z,100963.14
2019-02-17T12:33:18.427Z,100952.95
2019-02-17T12:35:38.239Z,100953.39
2019-02-17T12:38:07.011Z,100943.75
2019-02-17T12:40:35.748Z,100943.69
2019-02-17T12:43:04.517Z,100939.27
2019-02-17T12:45:33.254Z,100935.25
2019-02-17T12:48:02.014Z,100933.86
2019-02-17T12:50:30.753Z,100933.33
2019-02-17T12:52:59.592Z,100931.49
2019-02-17T12:55:28.444Z,100925.69
2019-02-17T12:57:57.212Z,100928.28
2019-02-17T13:00:45.041Z,100921.94
2019-02-17T13:03:13.809Z,100921.37
2019-02-17T13:05:42.550Z,100921.70
2019-02-17T13:08:11.311Z,100918.05
2019-02-17T13:10:40.146Z,100916.23
2019-02-17T13:13:08.913Z,100909.28
2019-02-17T13:15:37.668Z,100909.67
2019-02-17T13:18:06.668Z,100901.28
2019-02-17T13:20:35.436Z,100901.94
2019-02-17T13:23:04.356Z,100900.61
2019-02-17T13:25:33.171Z,100902.81
2019-02-17T13:28:02.009Z,100901.30
2019-02-17T13:30:30.748Z,100896.02
2019-02-17T13:32:59.510Z,100891.59
2019-02-17T13:35:28.263Z,100894.95
2019-02-17T13:37:57.028Z,100890.98
2019-02-17T13:40:25.832Z,100887.95
2019-02-17T13:42:54.620Z,100887.44
2019-02-17T13:45:23.367Z,100887.50
2019-02-17T13:47:52.181Z,100883.91
2019-02-17T13:50:21.062Z,100885.11
2019-02-17T13:52:49.809Z,100878.17
2019-02-17T13:55:18.586Z,100875.78
2019-02-17T13:57:47.332Z,100871.30
2019-02-17T14:00:16.206Z,100871.56
2019-02-17T14:02:45.026Z,100868.53
2019-02-17T14:05:13.868Z,100867.20
2019-02-17T14:07:42.717Z,100867.98
2019-02-17T14:10:11.572Z,100864.82
2019-02-17T14:12:40.317Z,100863.38
2019-02-17T14:15:11.731Z,100865.89
2019-02-17T14:17:40.484Z,100854.62
2019-02-17T14:20:09.956Z,100856.11
2019-02-17T14:22:38.697Z,100856.95
2019-02-17T14:25:07.842Z,100851.33
2019-02-17T14:27:36.578Z,100850.07
2019-02-17T14:30:06.374Z,100853.98
2019-02-17T14:32:35.116Z,100851.39
2019-02-17T14:35:03.934Z,100843.00
2019-02-17T14:37:32.679Z,100839.48
2019-02-17T14:40:01.453Z,100840.80
2019-02-17T14:42:30.189Z,100832.86
2019-02-17T14:44:59.031Z,100830.95
2019-02-17T14:47:27.764Z,100826.92
2019-02-17T14:49:56.536Z,100828.11
2019-02-17T14:52:25.354Z,100827.63
2019-02-17T14:54:54.203Z,100826.66
2019-02-17T14:57:22.956Z,100818.65
2019-02-17T14:59:51.812Z,100818.52
2019-02-17T15:02:20.549Z,100816.58
2019-02-17T15:04:49.312Z,100814.28
2019-02-17T15:07:18.190Z,100817.19
2019-02-17T15:09:47.025Z,100821.41
2019-02-17T15:12:15.843Z,100815.08
2019-02-17T15:14:44.814Z,100819.69
2019-02-17T15:17:14.844Z,100822.20
2019-02-17T15:19:43.796Z,100817.84
2019-02-17T15:22:12.544Z,100819.23
2019-02-17T15:24:41.389Z,100820.63
2019-02-17T15:27:10.156Z,100818.50
2019-02-17T15:29:38.999Z,100815.08
2019-02-17T15:32:07.830Z,100814.59
2019-02-17T15:34:36.639Z,100810.69
2019-02-17T15:37:05.463Z,100808.59
2019-02-17T15:39:34.231Z,100811.44
2019-02-17T15:42:03.065Z,100812.02
2019-02-17T15:44:31.912Z,100805.73
2019-02-17T15:47:00.934Z,100802.83
2019-02-17T15:49:29.693Z,100803.54
2019-02-17T15:51:58.440Z,100805.00
2019-02-17T15:54:27.198Z,100807.70
2019-02-17T15:56:55.934Z,100800.77
2019-02-17T15:59:24.708Z,100799.15
2019-02-17T16:01:53.528Z,100802.86
2019-02-17T16:04:28.530Z,100796.77
2019-02-17T16:06:53.204Z,100800.41
2019-02-17T16:09:23.145Z,100797.83
2019-02-17T16:11:51.894Z,100797.02
2019-02-17T16:14:20.737Z,100794.11
2019-02-17T16:16:50.569Z,100792.53
2019-02-17T16:19:19.368Z,100789.14
2019-02-17T16:21:48.337Z,100794.49
2019-02-17T16:24:17.083Z,100791.58
2019-02-17T16:26:45.917Z,100793.94
2019-02-17T16:29:14.659Z,100799.77
2019-02-17T16:31:43.429Z,100798.58
2019-02-17T16:34:12.183Z,100796.44
2019-02-17T16:36:40.950Z,100800.09
2019-02-17T16:39:12.972Z,100795.81
2019-02-17T16:41:41.824Z,100798.59
2019-02-17T16:44:10.744Z,100796.06
2019-02-17T16:46:39.510Z,100794.41
2019-02-17T16:49:08.249Z,100799.83
2019-02-17T16:51:37.010Z,100800.81
2019-02-17T16:54:05.751Z,100796.45
2019-02-17T16:56:34.540Z,100802.29
2019-02-17T16:59:03.350Z,100797.52
2019-02-17T17:01:32.818Z,100796.31
2019-02-17T17:04:01.639Z,100792.85
2019-02-17T17:06:30.401Z,100795.17
2019-02-17T17:08:59.269Z,100798.75
2019-02-17T17:11:28.040Z,100795.34
2019-02-17T17:13:56.843Z,100797.22
2019-02-17T17:16:25.660Z,100804.33
2019-02-17T17:18:54.582Z,100800.88
2019-02-17T17:21:23.369Z,100802.25
2019-02-17T17:23:52.114Z,100800.60
2019-02-17T17:26:20.948Z,100801.53
2019-02-17T17:28:49.681Z,100803.36
2019-02-17T17:31:18.513Z,100803.88
2019-02-17T17:33:47.258Z,100800.45
2019-02-17T17:36:16.162Z,100801.02
2019-02-17T17:38:44.901Z,100805.42
2019-02-17T17:41:13.665Z,100799.36
2019-02-17T17:43:42.409Z,100799.80
2019-02-17T17:46:11.248Z,100792.00
2019-02-17T17:48:40.072Z,100792.92
2019-02-17T17:51:08.852Z,100793.44
2019-02-17T17:53:37.601Z,100800.48
2019-02-17T17:56:06.365Z,100799.16
2019-02-17T17:58:35.206Z,100802.74
2019-02-17T18:01:03.969Z,100804.56
2019-02-17T18:03:32.710Z,100805.50
2019-02-17T18:06:01.591Z,100804.69
2019-02-17T18:08:30.313Z,100801.65
2019-02-17T18:10:59.068Z,100800.78
2019-02-17T18:13:27.841Z,100801.26
2019-02-17T18:15:56.647Z,100796.03
2019-02-17T18:18:25.404Z,100798.73
2019-02-17T18:20:54.173Z,100803.14
2019-02-17T18:23:23.276Z,100803.65
2019-02-17T18:25:52.089Z,100804.13
2019-02-17T18:28:20.862Z,100808.54
2019-02-17T18:30:49.615Z,100808.98
2019-02-17T18:33:18.382Z,100811.23
2019-02-17T18:35:47.116Z,100808.66
2019-02-17T18:38:15.948Z,100805.63
2019-02-17T18:40:47.796Z,100799.52
2019-02-17T18:43:15.260Z,100802.61
2019-02-17T18:45:44.093Z,100794.73
2019-02-17T18:48:12.859Z,100805.30
2019-02-17T18:50:41.766Z,100800.50
2019-02-17T18:53:10.525Z,100802.78
2019-02-17T18:55:39.400Z,100807.28
2019-02-17T18:58:08.180Z,100811.69
2019-02-17T19:00:36.992Z,100813.01
2019-02-17T19:03:05.763Z,100817.42
2019-02-17T19:05:34.502Z,100813.52
2019-02-17T19:08:03.305Z,100817.95
2019-02-17T19:10:32.055Z,100817.08
2019-02-17T19:13:00.821Z,100813.17
2019-02-17T19:15:29.565Z,100816.32
2019-02-17T19:17:58.410Z,100808.88
2019-02-17T19:20:27.445Z,100813.28
2019-02-17T19:22:56.264Z,100810.25
2019-02-17T19:25:25.018Z,100811.97
2019-02-17T19:27:53.806Z,100804.97
2019-02-17T19:31:26.917Z,100798.42
2019-02-17T19:33:55.697Z,100787.93
2019-02-17T19:36:24.514Z,100806.45
2019-02-17T19:38:53.459Z,100816.20
2019-02-17T19:41:22.280Z,100817.13
2019-02-17T19:43:51.054Z,100821.09
2019-02-17T19:46:19.870Z,100820.66
2019-02-17T19:48:48.639Z,100822.91
2019-02-17T19:51:17.472Z,100828.64
2019-02-17T19:53:46.242Z,100830.89
2019-02-17T19:56:15.089Z,100834.41
2019-02-17T19:58:43.882Z,100830.95
2019-02-17T20:01:12.702Z,100829.67
2019-02-17T20:04:12.369Z,100831.92
2019-02-17T20:06:41.146Z,100832.82
2019-02-17T20:09:17.850Z,100830.23
2019-02-17T20:11:46.635Z,100834.19
2019-02-17T20:14:15.577Z,100836.05
2019-02-17T20:16:44.330Z,100839.19
2019-02-17T20:19:13.184Z,100843.15
2019-02-17T20:22:01.267Z,100837.05
2019-02-17T20:24:30.047Z,100841.54
2019-02-17T20:26:58.794Z,100839.34
2019-02-17T20:29:27.562Z,100840.33
2019-02-17T20:31:56.306Z,100841.22
2019-02-17T20:34:25.075Z,100842.20
2019-02-17T20:36:53.816Z,100846.16
2019-02-17T20:39:25.704Z,100849.72
2019-02-17T20:41:55.220Z,100848.84
2019-02-17T20:44:24.517Z,100853.31
2019-02-17T20:46:55.707Z,100850.72
2019-02-17T20:49:24.480Z,100856.53
2019-02-17T20:51:53.268Z,100744.48
2019-02-17T20:54:22.264Z,100858.34
2019-02-17T20:56:51.001Z,100857.08
2019-02-17T20:59:19.867Z,100852.24
2019-02-17T21:01:48.686Z,100857.58
2019-02-17T21:04:20.117Z,100856.73
2019-02-17T21:06:49.751Z,100857.23
2019-02-17T21:09:23.823Z,100854.70
2019-02-17T21:11:52.645Z,100858.20
2019-02-17T21:14:21.486Z,100861.73
2019-02-17T21:16:50.355Z,100864.42
2019-02-17T21:19:19.185Z,100870.20
2019-02-17T21:21:49.028Z,100872.41
2019-02-17T21:24:20.937Z,100872.46
2019-02-17T21:26:49.859Z,100875.10
2019-02-17T21:29:19.661Z,100873.44
2019-02-17T21:31:49.130Z,100873.09
2019-02-17T21:34:17.931Z,100869.13
2019-02-17T21:36:47.312Z,100872.66
2019-02-17T21:39:18.454Z,100877.45
2019-02-17T21:41:48.650Z,100873.94
2019-02-17T21:44:17.418Z,100871.83
2019-02-17T21:46:46.238Z,100877.15
2019-02-17T21:49:15.076Z,100874.18
2019-02-17T21:51:43.894Z,100872.07
2019-02-17T21:54:12.656Z,100874.23
2019-02-17T21:56:41.399Z,100866.84
2019-02-17T21:59:10.245Z,100863.78
2019-02-17T22:01:39.067Z,100869.58
2019-02-17T22:04:07.912Z,100869.62
2019-02-17T22:06:36.793Z,100865.77
2019-02-17T22:09:06.605Z,100852.20
2019-02-17T22:11:35.357Z,100855.22
2019-02-17T22:14:04.128Z,100860.98
2019-02-17T22:16:32.867Z,100863.63
2019-02-17T22:19:01.656Z,100853.52
2019-02-17T22:21:30.394Z,100854.84
2019-02-17T22:23:59.162Z,100853.57
2019-02-17T22:26:27.894Z,100851.90
2019-02-17T22:28:56.730Z,100849.70
2019-02-17T22:31:25.473Z,100851.08
2019-02-17T22:33:54.259Z,100847.17
2019-02-17T22:36:22.997Z,100847.65
2019-02-17T22:38:51.842Z,100847.27
2019-02-17T22:41:20.694Z,100851.22
2019-02-17T22:43:49.612Z,100854.69
2019-02-17T22:46:18.431Z,100854.64
2019-02-17T22:48:47.173Z,100855.52
2019-02-17T22:51:16.004Z,100853.37
2019-02-17T22:53:44.813Z,100853.42
2019-02-17T22:56:13.577Z,100848.59
2019-02-17T22:58:42.324Z,100850.83
2019-02-17T23:01:15.162Z,100854.78
2019-02-17T23:03:43.901Z,100853.91
2019-02-17T23:06:12.669Z,100850.00
2019-02-17T23:08:41.410Z,100845.65
2019-02-17T23:11:10.178Z,100844.33
2019-02-17T23:13:38.917Z,100853.12
2019-02-17T23:16:07.681Z,100852.64
2019-02-17T23:18:36.435Z,100854.44
2019-02-17T23:21:05.382Z,100861.03
2019-02-17T23:23:34.120Z,100854.00
2019-02-17T23:26:02.913Z,100854.93
2019-02-17T23:28:31.661Z,100862.84
2019-02-17T23:31:00.440Z,100864.59
2019-02-17T23:33:29.171Z,100862.89
2019-02-17T23:35:58.091Z,100864.70
2019-02-17T23:38:26.832Z,100867.81
2019-02-17T23:40:55.668Z,100864.75
2019-02-17T23:43:24.404Z,100864.80
2019-02-17T23:45:53.175Z,100864.34
2019-02-17T23:48:21.939Z,100870.06
2019-02-17T23:51:09.802Z,100867.03
2019-02-17T23:53:38.549Z,100871.48
2019-02-17T23:56:07.340Z,100874.16
2019-02-17T23:58:36.074Z,100870.25
